Time;durP1;ratioP1;P1;durP2;ratioP2;P2;SDS_P1;SDS_P2;PMS_P1;PMS_P2;Temp;Humidity;BMP_temperature;BMP_pressure;BME280_temperature;BME280_humidity;BME280_pressure;Samples;Min_cycle;Max_cycle;Signal;HPM_P1;HPM_P2
2021/06/29 00:01:09;;;;;;;22.63;6.78;;;28.80;68.90;;;;;;5034187;28;20026;-70
2021/06/29 00:03:36;;;;;;;27.30;6.65;;;28.80;68.80;;;;;;5035299;28;20036;-70
2021/06/29 00:06:02;;;;;;;30.75;6.53;;;28.80;68.50;;;;;;5018136;28;20041;-69
2021/06/29 00:08:27;;;;;;;21.48;6.70;;;28.80;68.60;;;;;;5015634;28;20025;-69
2021/06/29 00:10:53;;;;;;;26.55;7.15;;;28.80;68.90;;;;;;5015487;28;20323;-69
2021/06/29 00:13:21;;;;;;;21.98;6.70;;;28.70;68.90;;;;;;5033199;28;20131;-70
2021/06/29 00:15:47;;;;;;;31.95;8.25;;;28.70;68.90;;;;;;5022589;28;20030;-69
2021/06/29 00:18:13;;;;;;;27.30;8.07;;;28.60;68.90;;;;;;5015325;28;20038;-69
2021/06/29 00:20:39;;;;;;;28.48;7.13;;;28.50;69.10;;;;;;5015412;28;20030;-68
2021/06/29 00:23:05;;;;;;;28.98;7.07;;;28.60;68.90;;;;;;5015337;28;20030;-70
2021/06/29 00:25:32;;;;;;;21.33;6.25;;;28.60;68.90;;;;;;5022045;28;20033;-69
2021/06/29 00:27:58;;;;;;;26.77;7.07;;;28.50;68.90;;;;;;5034602;28;20087;-70
2021/06/29 00:30:24;;;;;;;26.60;7.30;;;28.40;69.30;;;;;;5034731;28;20022;-69
2021/06/29 00:32:50;;;;;;;23.70;7.05;;;28.40;69.40;;;;;;5034899;28;20428;-69
2021/06/29 00:35:16;;;;;;;29.73;7.35;;;28.40;69.60;;;;;;5032443;28;20018;-70
2021/06/29 00:37:45;;;;;;;29.33;7.47;;;28.40;69.50;;;;;;5014791;28;20411;-69
2021/06/29 00:40:12;;;;;;;21.95;6.97;;;28.30;69.20;;;;;;5024445;28;20104;-70
2021/06/29 00:42:38;;;;;;;21.92;7.30;;;28.40;69.50;;;;;;5034811;28;20105;-71
2021/06/29 00:45:06;;;;;;;27.77;7.20;;;28.40;69.40;;;;;;5032687;28;20073;-70
2021/06/29 00:47:33;;;;;;;28.90;6.68;;;28.30;69.60;;;;;;5014872;28;20022;-69
2021/06/29 00:49:58;;;;;;;22.05;6.70;;;28.20;69.40;;;;;;5014736;28;20022;-71
2021/06/29 00:52:26;;;;;;;31.60;7.18;;;28.30;69.60;;;;;;5014837;28;20052;-69
2021/06/29 00:54:52;;;;;;;25.63;7.18;;;28.30;69.60;;;;;;5014581;28;20053;-70
2021/06/29 00:57:18;;;;;;;26.67;7.63;;;28.30;69.50;;;;;;5031276;28;20041;-71
2021/06/29 00:59:44;;;;;;;36.78;8.35;;;28.20;69.50;;;;;;5034473;28;20027;-70
2021/06/29 01:02:11;;;;;;;26.60;7.35;;;28.20;70.00;;;;;;5034167;28;20355;-70
2021/06/29 01:04:38;;;;;;;27.75;7.38;;;28.20;69.90;;;;;;5034389;28;20028;-69
2021/06/29 01:07:06;;;;;;;28.83;7.43;;;28.10;70.20;;;;;;5021743;28;20113;-69
2021/06/29 01:09:33;;;;;;;23.27;7.25;;;28.10;70.20;;;;;;5014927;28;20018;-69
2021/06/29 01:11:58;;;;;;;23.73;7.22;;;28.10;70.10;;;;;;5015078;28;20022;-69
2021/06/29 01:14:24;;;;;;;33.95;7.43;;;28.10;70.10;;;;;;5027706;28;20048;-70
2021/06/29 01:16:50;;;;;;;23.55;7.20;;;28.10;70.10;;;;;;5026319;28;20041;-70
2021/06/29 01:19:21;;;;;;;24.10;7.40;;;28.10;69.90;;;;;;5014839;28;20379;-69
2021/06/29 01:21:51;;;;;;;23.13;7.10;;;28.10;69.80;;;;;;5014640;28;20057;-69
2021/06/29 01:24:23;;;;;;;29.13;7.10;;;28.00;69.70;;;;;;5014362;28;20022;-70
2021/06/29 01:26:58;;;;;;;22.65;6.65;;;27.90;69.70;;;;;;5018453;28;20021;-68
2021/06/29 01:29:36;;;;;;;25.80;7.30;;;27.90;69.70;;;;;;5033825;28;20026;-69
2021/06/29 01:32:02;;;;;;;23.38;6.72;;;27.90;69.80;;;;;;5033837;28;20025;-69
2021/06/29 01:34:28;;;;;;;25.45;7.18;;;27.80;69.90;;;;;;5033758;28;20025;-70
2021/06/29 01:36:54;;;;;;;36.80;8.02;;;27.80;69.70;;;;;;5030575;28;20100;-69
2021/06/29 01:39:19;;;;;;;25.38;7.07;;;27.80;69.80;;;;;;5013882;28;20383;-69
2021/06/29 01:41:45;;;;;;;25.40;6.55;;;27.80;69.70;;;;;;5022454;28;20058;-69
2021/06/29 01:44:15;;;;;;;25.85;7.00;;;27.90;69.70;;;;;;5033729;28;20537;-70
2021/06/29 01:46:43;;;;;;;28.58;6.93;;;27.90;69.40;;;;;;5033605;28;20029;-70
2021/06/29 01:49:09;;;;;;;25.02;7.68;;;27.90;69.00;;;;;;5015308;28;20029;-69
2021/06/29 01:51:35;;;;;;;23.85;7.05;;;27.90;69.10;;;;;;5013546;28;20025;-69
2021/06/29 01:54:00;;;;;;;22.40;6.55;;;27.90;68.90;;;;;;5013526;28;20026;-69
2021/06/29 01:56:33;;;;;;;26.08;6.28;;;27.80;68.60;;;;;;5013402;28;20041;-69
2021/06/29 01:59:02;;;;;;;18.50;5.77;;;27.80;68.70;;;;;;5027364;28;20386;-69
2021/06/29 02:01:28;;;;;;;30.25;6.38;;;27.80;68.20;;;;;;5033537;28;20025;-69
2021/06/29 02:03:54;;;;;;;23.98;5.97;;;27.80;68.10;;;;;;5033512;28;20100;-69
2021/06/29 02:06:20;;;;;;;26.65;7.22;;;27.70;68.00;;;;;;5033117;28;20079;-69
2021/06/29 02:08:46;;;;;;;29.08;7.10;;;27.80;68.00;;;;;;5022373;28;20556;-70
2021/06/29 02:11:12;;;;;;;20.15;7.20;;;27.70;67.80;;;;;;5013342;28;20399;-70
2021/06/29 02:13:38;;;;;;;26.58;7.45;;;27.70;68.00;;;;;;5013470;28;20025;-69
2021/06/29 02:16:04;;;;;;;29.45;7.03;;;27.70;68.00;;;;;;5013360;28;20037;-69
2021/06/29 02:18:30;;;;;;;26.30;7.47;;;27.60;68.30;;;;;;5013121;28;20026;-71
2021/06/29 02:20:56;;;;;;;20.77;6.90;;;27.60;68.60;;;;;;5013097;28;20383;-71
2021/06/29 02:23:22;;;;;;;29.52;7.28;;;27.50;68.80;;;;;;5013511;28;20029;-70
2021/06/29 02:25:48;;;;;;;23.77;7.38;;;27.40;68.90;;;;;;5013398;28;20550;-70
2021/06/29 02:28:14;;;;;;;27.63;7.78;;;27.30;69.10;;;;;;5013512;28;20054;-70
2021/06/29 02:30:43;;;;;;;24.55;7.05;;;27.30;69.30;;;;;;5013465;28;20033;-70
2021/06/29 02:33:09;;;;;;;25.58;7.20;;;27.30;69.30;;;;;;5013292;28;20076;-70
2021/06/29 02:35:36;;;;;;;26.95;7.15;;;27.40;69.40;;;;;;5013677;28;20034;-69
2021/06/29 02:38:03;;;;;;;24.23;7.57;;;27.40;69.30;;;;;;5033027;28;20475;-69
2021/06/29 02:40:29;;;;;;;30.40;7.65;;;27.40;69.40;;;;;;5017569;28;20034;-69
2021/06/29 02:42:55;;;;;;;32.08;7.50;;;27.40;69.10;;;;;;5013190;28;20076;-69
2021/06/29 02:45:21;;;;;;;27.60;7.63;;;27.40;69.20;;;;;;5013126;28;20049;-69
2021/06/29 02:47:49;;;;;;;25.52;6.80;;;27.50;69.30;;;;;;5013199;28;20105;-70
2021/06/29 02:50:16;;;;;;;23.98;7.18;;;27.60;69.00;;;;;;5023321;28;20033;-69
2021/06/29 02:52:43;;;;;;;27.42;7.68;;;27.50;68.80;;;;;;5032446;28;20025;-70
2021/06/29 02:55:11;;;;;;;27.42;7.88;;;27.60;69.00;;;;;;5032681;28;20045;-69
2021/06/29 02:57:37;;;;;;;25.45;7.03;;;27.50;68.80;;;;;;5032326;28;20037;-69
2021/06/29 03:00:14;;;;;;;28.90;6.95;;;27.50;69.10;;;;;;5026974;28;20033;-70
2021/06/29 03:02:40;;;;;;;25.40;7.63;;;27.60;68.90;;;;;;4993565;28;20026;-70
2021/06/29 03:05:07;;;;;;;26.20;8.70;;;27.50;68.70;;;;;;4993398;28;20376;-70
2021/06/29 03:07:32;;;;;;;22.35;7.30;;;27.50;68.80;;;;;;4993346;28;20023;-71
2021/06/29 03:09:58;;;;;;;32.60;7.50;;;27.40;69.00;;;;;;4998695;28;20067;-69
2021/06/29 03:12:24;;;;;;;28.30;7.45;;;27.40;69.10;;;;;;5032729;28;20018;-71
2021/06/29 03:14:55;;;;;;;21.27;6.72;;;27.30;69.10;;;;;;5032594;28;20125;-70
2021/06/29 03:17:21;;;;;;;27.02;7.53;;;27.30;69.20;;;;;;5032319;28;20032;-69
2021/06/29 03:19:47;;;;;;;21.75;7.63;;;27.30;69.10;;;;;;5032179;28;20100;-69
2021/06/29 03:22:13;;;;;;;18.98;7.35;;;27.40;69.10;;;;;;4993487;28;20026;-70
2021/06/29 03:24:38;;;;;;;21.40;6.60;;;27.30;69.10;;;;;;4993219;28;20475;-69
2021/06/29 03:27:05;;;;;;;24.50;7.40;;;27.30;69.10;;;;;;4993200;28;20058;-70
2021/06/29 03:29:31;;;;;;;17.45;6.68;;;27.30;69.00;;;;;;4993130;28;20018;-69
2021/06/29 03:31:57;;;;;;;26.40;7.85;;;27.30;69.00;;;;;;5024448;28;20490;-70
2021/06/29 03:34:22;;;;;;;23.55;6.90;;;27.20;69.00;;;;;;5036040;28;20025;-70
2021/06/29 03:36:48;;;;;;;27.95;7.25;;;27.20;69.60;;;;;;5035778;28;20041;-69
2021/06/29 03:39:14;;;;;;;22.38;7.18;;;27.20;68.80;;;;;;5036005;28;20104;-69
2021/06/29 03:41:40;;;;;;;23.98;7.00;;;27.00;69.00;;;;;;5026255;28;20104;-70
2021/06/29 03:44:06;;;;;;;21.85;7.05;;;27.00;69.00;;;;;;5035505;28;20076;-69
2021/06/29 03:46:32;;;;;;;28.63;7.80;;;27.00;69.00;;;;;;5036086;28;20034;-70
2021/06/29 03:48:58;;;;;;;21.55;6.90;;;26.90;68.80;;;;;;5025566;28;20057;-71
2021/06/29 03:51:24;;;;;;;21.30;7.20;;;26.90;69.20;;;;;;5016011;28;20030;-70
2021/06/29 03:53:50;;;;;;;30.40;7.90;;;26.90;69.00;;;;;;5030732;28;20037;-70
2021/06/29 03:56:27;;;;;;;23.60;7.43;;;26.80;69.10;;;;;;5035310;28;20048;-69
2021/06/29 03:59:11;;;;;;;19.83;6.95;;;26.80;69.00;;;;;;5036132;28;20087;-69
2021/06/29 04:01:38;;;;;;;23.92;7.90;;;26.90;68.70;;;;;;5035632;28;20017;-70
2021/06/29 04:04:04;;;;;;;21.95;7.05;;;26.90;68.90;;;;;;5020905;28;20040;-69
2021/06/29 04:06:32;;;;;;;23.83;7.05;;;26.90;69.20;;;;;;5015711;28;20026;-69
2021/06/29 04:08:59;;;;;;;22.00;7.38;;;26.80;69.20;;;;;;5015450;28;20033;-70
2021/06/29 04:11:26;;;;;;;19.05;6.57;;;26.80;69.30;;;;;;5015432;28;20390;-70
2021/06/29 04:13:53;;;;;;;25.02;7.60;;;26.80;69.30;;;;;;5025125;28;20033;-70
2021/06/29 04:16:18;;;;;;;19.77;6.97;;;26.80;69.40;;;;;;5029063;28;20045;-70
2021/06/29 04:18:44;;;;;;;21.80;7.22;;;26.80;69.40;;;;;;5015424;28;20029;-69
2021/06/29 04:21:11;;;;;;;24.80;6.57;;;26.90;69.50;;;;;;5015330;28;20045;-70
2021/06/29 04:23:38;;;;;;;29.63;6.97;;;27.00;69.10;;;;;;5020181;28;20077;-69
2021/06/29 04:26:03;;;;;;;23.73;6.82;;;27.00;68.90;;;;;;5035191;28;20497;-71
2021/06/29 04:28:29;;;;;;;25.27;7.30;;;27.00;68.90;;;;;;5034934;28;20025;-71
2021/06/29 04:30:55;;;;;;;25.02;6.90;;;27.10;68.80;;;;;;5034885;28;20043;-70
2021/06/29 04:33:21;;;;;;;22.13;6.72;;;27.10;68.70;;;;;;5034570;28;20025;-69
2021/06/29 04:35:47;;;;;;;24.92;7.18;;;27.20;68.50;;;;;;5015024;28;20041;-69
2021/06/29 04:38:13;;;;;;;25.33;7.22;;;27.20;68.50;;;;;;5013809;28;20029;-70
2021/06/29 04:40:39;;;;;;;24.45;7.70;;;27.30;68.30;;;;;;5014861;28;20025;-70
2021/06/29 04:43:05;;;;;;;22.77;6.07;;;27.40;68.10;;;;;;5014587;28;20034;-69
2021/06/29 04:45:31;;;;;;;22.35;6.20;;;27.40;68.20;;;;;;5030177;28;20497;-70
2021/06/29 04:47:57;;;;;;;25.13;7.25;;;27.50;68.50;;;;;;5017202;28;20084;-69
2021/06/29 04:50:24;;;;;;;20.02;7.32;;;27.50;67.80;;;;;;5034526;28;20040;-69
2021/06/29 04:52:50;;;;;;;24.35;7.43;;;27.50;67.90;;;;;;5034574;28;20057;-69
2021/06/29 04:55:16;;;;;;;25.88;6.95;;;27.50;67.90;;;;;;5034246;28;20099;-71
2021/06/29 04:57:43;;;;;;;29.38;8.23;;;27.50;67.80;;;;;;5034235;28;20111;-68
2021/06/29 05:00:11;;;;;;;18.98;6.95;;;27.50;67.90;;;;;;5017321;28;20434;-70
2021/06/29 05:02:38;;;;;;;26.15;7.60;;;27.50;67.80;;;;;;5014507;28;20026;-69
2021/06/29 05:05:05;;;;;;;22.85;7.05;;;27.60;67.80;;;;;;5014905;28;20029;-69
2021/06/29 05:07:31;;;;;;;22.88;7.18;;;27.50;67.90;;;;;;5014384;28;20104;-69
2021/06/29 05:09:57;;;;;;;25.25;7.45;;;27.50;67.70;;;;;;5025199;28;20378;-70
2021/06/29 05:12:22;;;;;;;21.50;7.00;;;27.50;67.80;;;;;;5025169;28;20034;-71
2021/06/29 05:14:48;;;;;;;29.92;7.72;;;27.50;67.70;;;;;;5014577;28;20030;-70
2021/06/29 05:17:14;;;;;;;25.85;7.10;;;27.60;67.50;;;;;;5014220;28;20156;-69
2021/06/29 05:19:39;;;;;;;30.02;8.00;;;27.70;67.20;;;;;;5014040;28;20057;-70
2021/06/29 05:22:06;;;;;;;20.67;6.85;;;27.80;67.00;;;;;;5014393;28;20041;-69
2021/06/29 05:24:32;;;;;;;21.45;6.78;;;27.90;66.70;;;;;;5014332;28;20022;-70
2021/06/29 05:26:57;;;;;;;23.30;7.38;;;28.10;66.20;;;;;;5014043;28;20561;-70
2021/06/29 05:29:23;;;;;;;27.30;7.53;;;28.30;65.60;;;;;;5016086;28;20026;-71
2021/06/29 05:31:49;;;;;;;22.83;6.97;;;28.50;64.80;;;;;;5033776;28;20078;-69
2021/06/29 05:34:15;;;;;;;24.60;7.15;;;28.80;64.40;;;;;;5033685;28;20026;-70
2021/06/29 05:36:42;;;;;;;24.15;7.28;;;29.10;63.60;;;;;;5033422;28;20116;-69
2021/06/29 05:39:08;;;;;;;22.17;7.82;;;29.30;63.00;;;;;;5033707;28;20064;-70
2021/06/29 05:41:34;;;;;;;22.52;7.20;;;29.70;62.00;;;;;;5014344;28;20042;-70
2021/06/29 05:43:59;;;;;;;23.50;7.40;;;30.00;60.90;;;;;;5013811;28;20041;-70
2021/06/29 05:46:25;;;;;;;26.55;6.93;;;30.20;60.10;;;;;;5013865;28;20026;-70
2021/06/29 05:48:52;;;;;;;22.13;6.93;;;30.40;59.00;;;;;;5013855;28;20084;-70
2021/06/29 05:51:18;;;;;;;24.88;6.85;;;30.70;58.70;;;;;;5027475;28;20108;-70
2021/06/29 05:53:44;;;;;;;28.83;7.53;;;30.90;58.00;;;;;;5027854;28;20032;-70
2021/06/29 05:56:11;;;;;;;23.92;7.22;;;31.10;57.20;;;;;;5013274;28;20045;-70
2021/06/29 05:58:37;;;;;;;24.67;7.53;;;31.30;57.00;;;;;;5013668;28;20081;-70
2021/06/29 06:01:04;;;;;;;31.08;7.63;;;31.40;56.20;;;;;;5013688;28;20477;-70
2021/06/29 06:03:30;;;;;;;23.33;7.50;;;31.60;56.20;;;;;;5013408;28;20064;-69
2021/06/29 06:05:57;;;;;;;22.52;6.70;;;31.70;55.70;;;;;;5032115;28;20069;-69
2021/06/29 06:08:23;;;;;;;22.98;6.93;;;31.80;55.50;;;;;;5021947;28;20108;-70
2021/06/29 06:10:49;;;;;;;22.58;6.97;;;31.80;55.10;;;;;;5013277;28;20097;-70
2021/06/29 06:13:15;;;;;;;29.52;7.30;;;31.80;54.80;;;;;;5013413;28;20022;-69
2021/06/29 06:15:41;;;;;;;22.90;6.70;;;31.90;54.70;;;;;;5027351;28;20033;-71
2021/06/29 06:18:07;;;;;;;25.33;7.32;;;32.00;54.50;;;;;;5033136;28;20026;-70
2021/06/29 06:20:37;;;;;;;34.83;7.53;;;32.20;54.80;;;;;;5033079;28;20026;-70
2021/06/29 06:23:04;;;;;;;28.20;7.45;;;32.40;54.80;;;;;;5032894;28;20103;-70
2021/06/29 06:25:30;;;;;;;23.25;6.90;;;32.40;54.40;;;;;;5022303;28;20037;-70
2021/06/29 06:27:56;;;;;;;27.52;7.70;;;32.60;54.00;;;;;;5013044;28;20083;-69
2021/06/29 06:30:22;;;;;;;33.83;7.70;;;32.60;53.70;;;;;;5015583;28;20057;-69
2021/06/29 06:32:48;;;;;;;23.67;6.65;;;32.60;53.60;;;;;;5032742;28;20084;-69
2021/06/29 06:35:14;;;;;;;27.75;7.78;;;32.70;53.50;;;;;;5027396;28;20471;-69
2021/06/29 06:37:40;;;;;;;24.23;7.03;;;32.90;53.20;;;;;;5012601;28;20030;-69
2021/06/29 06:40:07;;;;;;;28.17;6.85;;;33.00;53.00;;;;;;5012798;28;20024;-69
2021/06/29 06:42:33;;;;;;;29.52;7.80;;;32.90;52.70;;;;;;5013018;28;20033;-70
2021/06/29 06:44:59;;;;;;;19.48;6.38;;;32.80;53.00;;;;;;5012504;28;20044;-69
2021/06/29 06:47:25;;;;;;;33.75;7.35;;;32.70;53.00;;;;;;4992706;28;20380;-71
2021/06/29 06:49:51;;;;;;;26.23;6.28;;;32.70;53.30;;;;;;4993143;28;20417;-72
2021/06/29 06:52:18;;;;;;;25.42;7.20;;;33.00;53.00;;;;;;4993021;28;20145;-68
2021/06/29 06:54:43;;;;;;;31.05;8.05;;;33.10;52.90;;;;;;4992834;28;20049;-69
2021/06/29 06:57:10;;;;;;;25.40;7.47;;;32.90;52.80;;;;;;5022780;28;20042;-69
2021/06/29 06:59:36;;;;;;;24.08;6.95;;;32.90;53.10;;;;;;5018986;28;20160;-70
2021/06/29 07:02:02;;;;;;;21.60;6.85;;;32.90;53.20;;;;;;5011951;28;20090;-69
2021/06/29 07:04:28;;;;;;;31.42;7.45;;;32.80;53.40;;;;;;5012140;28;20053;-69
2021/06/29 07:06:54;;;;;;;35.95;7.97;;;32.70;53.40;;;;;;5017785;28;20030;-69
2021/06/29 07:09:20;;;;;;;24.70;6.35;;;32.80;53.30;;;;;;5035893;28;20021;-70
2021/06/29 07:11:46;;;;;;;32.47;7.93;;;32.60;53.30;;;;;;5034550;28;20090;-71
2021/06/29 07:14:12;;;;;;;31.15;7.53;;;32.50;53.80;;;;;;5036169;28;20101;-70
2021/06/29 07:16:38;;;;;;;24.90;7.13;;;32.20;54.00;;;;;;5030711;28;20571;-70
2021/06/29 07:19:04;;;;;;;27.85;7.78;;;31.80;54.30;;;;;;5016000;28;20029;-69
2021/06/29 07:21:30;;;;;;;26.23;7.22;;;31.70;54.60;;;;;;5016123;28;20022;-69
2021/06/29 07:23:56;;;;;;;27.67;6.70;;;31.80;54.50;;;;;;5016080;28;20490;-69
2021/06/29 07:26:23;;;;;;;32.13;8.15;;;31.80;54.30;;;;;;5019535;28;20022;-69
2021/06/29 07:28:53;;;;;;;25.58;7.55;;;31.60;54.40;;;;;;5035264;28;20490;-70
2021/06/29 07:31:19;;;;;;;27.30;7.47;;;31.20;54.30;;;;;;5034811;28;20479;-69
2021/06/29 07:33:46;;;;;;;31.30;7.15;;;31.10;54.90;;;;;;5035549;28;20022;-69
2021/06/29 07:36:12;;;;;;;41.92;7.88;;;31.10;54.70;;;;;;5035281;28;20517;-70
2021/06/29 07:38:39;;;;;;;29.75;7.18;;;31.10;54.40;;;;;;5015683;28;20041;-70
2021/06/29 07:41:05;;;;;;;32.60;6.82;;;31.10;54.10;;;;;;5015982;28;20064;-69
2021/06/29 07:43:31;;;;;;;24.77;6.78;;;31.00;53.10;;;;;;5016057;28;20176;-69
2021/06/29 07:45:57;;;;;;;29.38;7.47;;;30.90;52.80;;;;;;5015460;28;20038;-69
2021/06/29 07:48:23;;;;;;;34.08;7.75;;;30.60;52.20;;;;;;5030247;28;20029;-68
2021/06/29 07:50:49;;;;;;;33.15;7.53;;;30.60;52.70;;;;;;5035355;28;20097;-69
2021/06/29 07:53:14;;;;;;;30.63;7.22;;;30.40;53.00;;;;;;5035475;28;20466;-68
2021/06/29 07:55:40;;;;;;;38.22;8.30;;;30.40;53.20;;;;;;5035153;28;20049;-69
2021/06/29 07:58:06;;;;;;;29.05;7.55;;;30.50;53.20;;;;;;5033320;28;20040;-69
2021/06/29 08:00:31;;;;;;;35.90;7.75;;;30.70;53.00;;;;;;5033518;28;20037;-68
2021/06/29 08:02:59;;;;;;;41.67;8.00;;;31.00;53.00;;;;;;5035170;28;20028;-69
2021/06/29 08:05:25;;;;;;;31.73;7.47;;;31.10;52.80;;;;;;5035288;28;20068;-69
2021/06/29 08:07:51;;;;;;;36.85;8.27;;;31.20;52.80;;;;;;5028898;28;20034;-69
2021/06/29 08:10:16;;;;;;;36.00;7.65;;;31.40;52.70;;;;;;5015452;28;20360;-69
2021/06/29 08:12:43;;;;;;;28.83;7.43;;;31.50;52.50;;;;;;5015495;28;20053;-68
2021/06/29 08:15:09;;;;;;;28.90;7.65;;;31.60;52.30;;;;;;5015135;28;20037;-70
2021/06/29 08:17:35;;;;;;;31.90;7.20;;;31.80;52.00;;;;;;5012908;28;20499;-69
2021/06/29 08:20:02;;;;;;;30.83;7.22;;;31.90;52.00;;;;;;5034688;28;20036;-70
2021/06/29 08:22:28;;;;;;;30.83;7.18;;;31.90;52.10;;;;;;5019657;28;20036;-69
2021/06/29 08:24:53;;;;;;;35.08;7.35;;;31.80;52.00;;;;;;5015264;28;20022;-69
2021/06/29 08:27:19;;;;;;;24.70;6.88;;;31.80;52.00;;;;;;5032961;28;20026;-69
2021/06/29 08:29:45;;;;;;;28.98;7.32;;;31.80;52.00;;;;;;5035023;28;20482;-69
2021/06/29 08:32:12;;;;;;;33.70;7.60;;;31.70;52.00;;;;;;5025119;28;20379;-70
2021/06/29 08:34:38;;;;;;;34.92;7.90;;;31.70;52.50;;;;;;5014946;28;20022;-69
2021/06/29 08:37:04;;;;;;;38.42;7.82;;;31.60;51.50;;;;;;5014854;28;20044;-68
2021/06/29 08:39:30;;;;;;;44.72;7.90;;;31.70;51.30;;;;;;5014886;28;20387;-69
2021/06/29 08:41:55;;;;;;;34.85;7.90;;;31.70;50.70;;;;;;5014322;28;20087;-69
2021/06/29 08:44:22;;;;;;;34.17;7.60;;;31.70;50.40;;;;;;5014650;28;20511;-69
2021/06/29 08:46:48;;;;;;;39.63;7.70;;;31.80;50.20;;;;;;5014550;28;20054;-70
2021/06/29 08:49:13;;;;;;;31.77;7.82;;;31.80;50.00;;;;;;5014474;28;20029;-69
2021/06/29 08:51:39;;;;;;;31.33;7.50;;;31.80;50.50;;;;;;5019060;28;20021;-69
2021/06/29 08:54:06;;;;;;;29.60;6.80;;;31.90;49.70;;;;;;5034272;28;20484;-70
2021/06/29 08:56:32;;;;;;;32.15;7.50;;;31.90;49.30;;;;;;5033758;28;20057;-70
2021/06/29 08:59:00;;;;;;;41.22;8.32;;;31.90;48.20;;;;;;5034313;28;20416;-69
2021/06/29 09:01:29;;;;;;;30.88;7.47;;;32.00;47.90;;;;;;5022180;28;20041;-69
2021/06/29 09:03:56;;;;;;;29.23;6.75;;;32.00;48.20;;;;;;5014352;28;20151;-72
2021/06/29 09:06:31;;;;;;;38.70;7.10;;;32.10;48.30;;;;;;5013890;28;20056;-71
2021/06/29 09:08:57;;;;;;;41.75;7.55;;;32.10;47.60;;;;;;5014195;28;20558;-68
2021/06/29 09:11:23;;;;;;;33.63;7.50;;;32.20;47.60;;;;;;5022697;28;20108;-73
2021/06/29 09:14:09;;;;;;;31.88;6.90;;;32.20;47.30;;;;;;5033967;28;20216;-71
2021/06/29 09:16:35;;;;;;;30.40;7.45;;;32.30;47.30;;;;;;5034053;28;20033;-74
2021/06/29 09:19:02;;;;;;;27.48;7.18;;;32.40;47.40;;;;;;5033833;28;20104;-70
2021/06/29 09:21:28;;;;;;;36.42;7.32;;;32.60;49.00;;;;;;5042393;28;20029;-67
2021/06/29 09:23:54;;;;;;;33.88;7.32;;;32.70;48.50;;;;;;5014106;28;20128;-71
2021/06/29 09:26:23;;;;;;;40.28;8.20;;;32.80;47.90;;;;;;5009090;28;20136;-71
2021/06/29 09:28:58;;;;;;;32.30;6.97;;;32.90;47.00;;;;;;5011987;28;20402;-68
2021/06/29 09:31:43;;;;;;;35.25;8.00;;;33.00;46.10;;;;;;5013858;28;20033;-67
2021/06/29 09:34:11;;;;;;;41.83;7.47;;;32.90;46.20;;;;;;5028965;28;20029;-68
2021/06/29 09:36:40;;;;;;;30.58;7.28;;;32.90;47.40;;;;;;5036585;28;20076;-68
2021/06/29 09:39:10;;;;;;;42.03;8.02;;;32.80;48.10;;;;;;5010899;28;20025;-68
2021/06/29 09:41:37;;;;;;;33.00;7.22;;;32.70;48.40;;;;;;5013320;28;20049;-69
2021/06/29 09:44:09;;;;;;;31.33;7.78;;;32.60;48.50;;;;;;5014076;28;20145;-69
2021/06/29 09:46:37;;;;;;;48.00;15.35;;;32.60;47.80;;;;;;5013054;28;20034;-70
2021/06/29 09:49:15;;;;;;;44.75;11.98;;;32.60;49.10;;;;;;5012896;28;20030;-69
2021/06/29 09:51:53;;;;;;;54.65;13.60;;;32.50;48.10;;;;;;5009758;28;20152;-70
2021/06/29 09:54:21;;;;;;;56.55;15.25;;;32.60;48.30;;;;;;5012040;28;20120;-70
2021/06/29 09:56:47;;;;;;;37.40;10.38;;;32.60;49.20;;;;;;5006282;28;20396;-71
2021/06/29 09:59:18;;;;;;;39.72;11.50;;;32.60;49.30;;;;;;5011584;28;20046;-70
2021/06/29 10:01:45;;;;;;;33.42;8.18;;;32.60;49.20;;;;;;5011219;28;20021;-69
2021/06/29 10:04:11;;;;;;;33.97;9.68;;;32.60;49.50;;;;;;5041654;28;20190;-69
2021/06/29 10:06:39;;;;;;;33.22;9.02;;;32.60;49.60;;;;;;5012604;28;20021;-70
2021/06/29 10:09:11;;;;;;;30.38;8.48;;;32.70;49.90;;;;;;5012830;28;20030;-69
2021/06/29 10:11:42;;;;;;;43.88;8.98;;;32.70;50.20;;;;;;5013237;28;20051;-73
2021/06/29 10:14:13;;;;;;;35.50;7.38;;;32.70;49.70;;;;;;5013912;28;20026;-79
2021/06/29 10:16:43;;;;;;;31.42;7.93;;;32.70;51.00;;;;;;5026962;28;20029;-79
2021/06/29 10:21:43;;;;;;;38.88;8.60;;;32.60;51.60;;;;;;5013307;28;20147;-74
2021/06/29 10:24:13;;;;;;;33.95;8.77;;;32.60;50.80;;;;;;5013962;28;20551;-80
2021/06/29 10:26:40;;;;;;;31.60;7.70;;;32.70;52.30;;;;;;5027461;28;20029;-78
2021/06/29 10:29:08;;;;;;;34.45;8.55;;;32.70;52.80;;;;;;5014531;28;20034;-76
2021/06/29 10:31:38;;;;;;;31.25;8.93;;;32.70;53.30;;;;;;5011048;28;20010;-77
2021/06/29 10:34:09;;;;;;;38.58;8.50;;;32.70;53.90;;;;;;5012852;28;20437;-79
2021/06/29 10:36:39;;;;;;;35.08;9.27;;;32.70;54.30;;;;;;5010345;28;20022;-76
2021/06/29 10:39:07;;;;;;;38.67;9.55;;;32.70;55.10;;;;;;5014918;28;20071;-72
2021/06/29 10:41:37;;;;;;;32.25;8.32;;;32.60;55.50;;;;;;5015317;28;20029;-75
2021/06/29 10:44:16;;;;;;;40.00;8.65;;;32.60;56.10;;;;;;5016981;28;20022;-72
2021/06/29 10:46:51;;;;;;;35.70;9.32;;;32.60;55.30;;;;;;5016828;28;20041;-73
2021/06/29 10:49:25;;;;;;;37.45;9.02;;;32.70;56.80;;;;;;5030173;28;20106;-74
2021/06/29 10:51:51;;;;;;;35.90;9.02;;;32.70;56.30;;;;;;4997393;28;20037;-72
2021/06/29 10:54:40;;;;;;;27.45;8.05;;;32.70;56.40;;;;;;4997356;28;20022;-71
2021/06/29 10:57:08;;;;;;;37.08;9.63;;;32.70;55.40;;;;;;4993791;28;20093;-75
2021/06/29 10:59:41;;;;;;;36.15;9.15;;;32.70;57.10;;;;;;5030326;28;20522;-75
2021/06/29 11:02:14;;;;;;;34.15;8.60;;;32.70;57.50;;;;;;5018569;28;20033;-78
2021/06/29 11:05:01;;;;;;;44.67;9.05;;;32.60;57.40;;;;;;5016997;28;20011;-72
2021/06/29 11:07:30;;;;;;;40.53;9.48;;;32.70;57.50;;;;;;5032067;28;20022;-78
2021/06/29 11:10:00;;;;;;;40.05;8.18;;;32.70;56.10;;;;;;5018005;28;20029;-74
2021/06/29 11:12:26;;;;;;;34.72;9.07;;;32.70;57.80;;;;;;5018537;28;20021;-76
2021/06/29 11:14:57;;;;;;;36.28;8.68;;;32.70;57.30;;;;;;5016218;28;20026;-73
2021/06/29 11:17:51;;;;;;;36.72;9.13;;;32.60;57.30;;;;;;5015872;28;20088;-70
2021/06/29 11:25:05;;;;;;;44.75;10.02;;;32.50;56.40;;;;;;5131656;27;20118;-72
2021/06/29 11:28:01;;;;;;;31.88;8.27;;;32.40;58.20;;;;;;5136760;27;20109;-72
2021/06/29 11:30:54;;;;;;;30.48;8.93;;;32.40;56.90;;;;;;5127632;27;20053;-73
2021/06/29 11:33:53;;;;;;;33.83;8.43;;;32.50;57.00;;;;;;5152105;27;20096;-72
2021/06/29 11:36:25;;;;;;;39.47;9.30;;;32.50;56.30;;;;;;5139229;27;20036;-72
2021/06/29 11:38:54;;;;;;;38.08;9.10;;;32.50;57.60;;;;;;5131295;28;20019;-80
2021/06/29 11:41:36;;;;;;;36.38;8.57;;;32.60;56.30;;;;;;5131194;28;20075;-74
2021/06/29 11:44:07;;;;;;;31.95;8.75;;;32.60;56.00;;;;;;5140984;27;20047;-71
2021/06/29 11:46:52;;;;;;;35.58;8.90;;;32.70;55.90;;;;;;5133666;27;20055;-71
2021/06/29 11:49:32;;;;;;;39.10;8.80;;;32.70;56.50;;;;;;5131161;28;20027;-72
2021/06/29 11:52:04;;;;;;;40.20;8.60;;;32.70;55.20;;;;;;5133445;27;20015;-71
2021/06/29 11:54:38;;;;;;;63.35;12.13;;;32.70;56.40;;;;;;5136217;27;20090;-72
2021/06/29 11:57:14;;;;;;;60.40;11.40;;;32.70;55.00;;;;;;5130061;27;20027;-70
2021/06/29 11:59:40;;;;;;;32.30;8.48;;;32.80;55.90;;;;;;5129462;28;20119;-72
2021/06/29 12:02:09;;;;;;;32.88;7.70;;;32.90;55.70;;;;;;5130832;27;20031;-74
2021/06/29 12:04:35;;;;;;;34.22;8.18;;;32.90;55.50;;;;;;5110866;28;20089;-72
2021/06/29 12:07:02;;;;;;;32.88;8.80;;;32.90;55.50;;;;;;5128656;28;20049;-72
2021/06/29 12:09:29;;;;;;;35.05;7.85;;;32.90;55.00;;;;;;5130194;27;20075;-73
2021/06/29 12:12:18;;;;;;;31.63;8.40;;;33.00;55.50;;;;;;5130270;27;20028;-71
2021/06/29 12:14:44;;;;;;;36.25;8.63;;;33.00;53.90;;;;;;5130014;27;20019;-73
2021/06/29 12:17:11;;;;;;;32.05;8.05;;;33.10;54.90;;;;;;5128416;28;20397;-71
2021/06/29 12:19:39;;;;;;;36.90;9.25;;;33.10;54.70;;;;;;5129709;28;20106;-72
2021/06/29 12:22:06;;;;;;;43.25;9.18;;;33.00;54.70;;;;;;5129850;28;20493;-71
2021/06/29 12:24:31;;;;;;;32.85;8.27;;;33.00;54.80;;;;;;5129671;28;20092;-71
2021/06/29 12:26:57;;;;;;;35.20;7.32;;;33.00;54.60;;;;;;5129468;28;20024;-70
2021/06/29 12:29:37;;;;;;;44.65;8.60;;;33.10;54.20;;;;;;5129957;28;20023;-73
2021/06/29 12:32:23;;;;;;;42.58;9.40;;;33.10;53.80;;;;;;5129686;27;20476;-70
2021/06/29 12:34:49;;;;;;;35.35;8.48;;;33.10;53.80;;;;;;5124532;27;20046;-71
2021/06/29 12:37:15;;;;;;;35.15;8.05;;;33.10;53.90;;;;;;5115924;28;20027;-71
2021/06/29 12:39:40;;;;;;;29.02;8.65;;;33.10;53.90;;;;;;5115806;27;20027;-71
2021/06/29 12:42:14;;;;;;;33.45;7.55;;;33.10;54.00;;;;;;5131890;27;20375;-70
2021/06/29 12:44:40;;;;;;;37.65;8.57;;;33.20;54.30;;;;;;5136429;27;20043;-72
2021/06/29 12:47:12;;;;;;;43.72;8.50;;;33.20;54.20;;;;;;5136000;27;20027;-71